Time;durP1;ratioP1;P1;durP2;ratioP2;P2;SDS_P1;SDS_P2;PMS_P1;PMS_P2;Temp;Humidity;BMP_temperature;BMP_pressure;BME280_temperature;BME280_humidity;BME280_pressure;Samples;Min_cycle;Max_cycle;Signal;HPM_P1;HPM_P2
2023/06/07 00:01:55;;;;;;;0.60;0.60;;;;;;;13.82;89.14;97315.28;5063907;28;20051;-64
2023/06/07 00:04:22;;;;;;;0.57;0.57;;;;;;;13.79;88.99;97324.41;5063950;28;20346;-65
2023/06/07 00:07:00;;;;;;;0.60;0.60;;;;;;;13.87;89.03;97309.38;5063880;28;20956;-64
2023/06/07 00:09:30;;;;;;;0.50;0.50;;;;;;;13.89;88.39;97312.59;5062934;28;20052;-64
2023/06/07 00:11:58;;;;;;;0.60;0.60;;;;;;;13.88;89.20;97316.56;5083638;28;20060;-64
2023/06/07 00:14:25;;;;;;;0.60;0.60;;;;;;;13.67;88.75;97292.91;5084154;28;20129;-64
2023/06/07 00:16:53;;;;;;;0.60;0.60;;;;;;;13.25;88.45;97217.38;5084051;28;20531;-64
2023/06/07 00:19:25;;;;;;;0.57;0.57;;;;;;;13.65;88.97;97312.00;5083839;28;20055;-64
2023/06/07 00:21:52;;;;;;;0.50;0.50;;;;;;;13.63;89.07;97311.56;5083932;28;20048;-64
2023/06/07 00:24:20;;;;;;;0.60;0.60;;;;;;;13.47;90.16;97302.66;5082341;28;20044;-65
2023/06/07 00:26:47;;;;;;;0.60;0.60;;;;;;;13.44;90.86;97309.00;5083729;28;20059;-64
2023/06/07 00:29:15;;;;;;;0.50;0.50;;;;;;;13.60;89.90;97305.97;5083770;28;20054;-64
2023/06/07 00:31:42;;;;;;;0.50;0.50;;;;;;;13.30;89.94;97266.31;5083452;28;20065;-64
2023/06/07 00:34:09;;;;;;;0.60;0.60;;;;;;;13.62;89.14;97309.94;5083654;28;20048;-64
2023/06/07 00:36:36;;;;;;;0.60;0.60;;;;;;;13.48;90.81;97309.81;5082440;28;20048;-64
2023/06/07 00:39:02;;;;;;;0.55;0.55;;;;;;;12.97;90.76;97228.22;5083773;28;20467;-64
2023/06/07 00:41:29;;;;;;;0.60;0.60;;;;;;;13.51;90.34;97300.69;5082267;28;20060;-64
2023/06/07 00:43:56;;;;;;;0.50;0.50;;;;;;;13.48;89.33;97284.78;5084189;28;20044;-65
2023/06/07 00:46:27;;;;;;;0.60;0.60;;;;;;;13.59;88.49;97304.38;5083395;28;20056;-64
2023/06/07 00:48:56;;;;;;;0.60;0.60;;;;;;;13.52;89.02;97299.53;5083988;28;20051;-65
2023/06/07 00:51:27;;;;;;;0.55;0.55;;;;;;;13.05;89.51;97229.91;5082967;28;20234;-64
2023/06/07 00:53:58;;;;;;;0.50;0.50;;;;;;;13.52;89.21;97291.19;5083842;28;20052;-65
2023/06/07 00:56:26;;;;;;;0.52;0.52;;;;;;;13.43;89.87;97293.50;5081654;28;20075;-65
2023/06/07 00:58:53;;;;;;;0.50;0.50;;;;;;;12.98;90.49;97256.78;5083933;28;20079;-65
2023/06/07 01:01:20;;;;;;;0.60;0.60;;;;;;;13.40;89.89;97305.38;5085362;28;20080;-64
2023/06/07 01:03:47;;;;;;;0.50;0.50;;;;;;;13.30;90.20;97291.34;5087621;28;20088;-64
2023/06/07 01:06:13;;;;;;;0.50;0.50;;;;;;;13.39;89.46;97298.22;5086737;28;20594;-64
2023/06/07 01:08:41;;;;;;;0.60;0.60;;;;;;;13.49;89.26;97294.75;5085722;28;20498;-64
2023/06/07 01:11:10;;;;;;;0.68;0.68;;;;;;;13.47;89.31;97294.31;5087053;28;20075;-64
2023/06/07 01:13:39;;;;;;;0.60;0.60;;;;;;;13.52;88.51;97287.59;5087184;28;20054;-64
2023/06/07 01:16:08;;;;;;;0.60;0.60;;;;;;;13.44;89.76;97289.50;5086434;28;20131;-63
2023/06/07 01:18:35;;;;;;;0.60;0.60;;;;;;;13.42;90.78;97289.09;5087447;28;20092;-64
2023/06/07 01:21:05;;;;;;;0.60;0.60;;;;;;;13.40;91.21;97285.88;5087199;28;20058;-64
2023/06/07 01:23:33;;;;;;;0.60;0.60;;;;;;;13.00;89.95;97241.38;5086982;28;20052;-65
2023/06/07 01:26:01;;;;;;;0.50;0.50;;;;;;;13.36;90.17;97289.81;5085047;28;20054;-64
2023/06/07 01:28:33;;;;;;;0.60;0.60;;;;;;;13.27;90.36;97281.78;5086808;28;20568;-64
2023/06/07 01:31:02;;;;;;;0.60;0.60;;;;;;;12.79;91.73;97235.53;5085623;28;20151;-64
2023/06/07 01:33:32;;;;;;;0.60;0.60;;;;;;;13.08;91.30;97251.41;5086793;28;20066;-64
2023/06/07 01:36:00;;;;;;;0.60;0.60;;;;;;;12.79;90.28;97207.75;5086944;28;20052;-64
2023/06/07 01:38:27;;;;;;;0.52;0.52;;;;;;;13.28;89.88;97279.78;5086673;28;20453;-63
2023/06/07 01:40:55;;;;;;;0.60;0.60;;;;;;;12.87;90.95;97223.31;5084993;28;20154;-64
2023/06/07 01:43:23;;;;;;;0.60;0.60;;;;;;;13.15;91.51;97282.03;5086814;28;20066;-64
2023/06/07 01:45:52;;;;;;;0.60;0.60;;;;;;;13.00;91.99;97277.53;5086518;28;20074;-64
2023/06/07 01:48:19;;;;;;;0.60;0.60;;;;;;;12.99;92.17;97287.00;5085134;28;20498;-64
2023/06/07 01:50:46;;;;;;;0.60;0.60;;;;;;;13.03;92.57;97268.41;5084595;28;20059;-63
2023/06/07 01:53:13;;;;;;;0.52;0.52;;;;;;;13.12;92.23;97268.91;5086738;28;20051;-65
2023/06/07 01:55:40;;;;;;;0.60;0.60;;;;;;;12.64;91.93;97200.44;5084877;28;20059;-64
2023/06/07 01:58:29;;;;;;;0.60;0.60;;;;;;;13.09;90.94;97258.53;5086640;28;20516;-64
2023/06/07 02:01:14;;;;;;;0.60;0.60;;;;;;;12.99;91.38;97247.28;5086052;28;20454;-64
2023/06/07 02:03:45;;;;;;;0.60;0.60;;;;;;;12.51;92.33;97176.84;5087088;28;20446;-64
2023/06/07 02:06:17;;;;;;;0.60;0.60;;;;;;;13.02;92.92;97255.72;5086206;28;20105;-64
2023/06/07 02:08:50;;;;;;;0.60;0.60;;;;;;;13.06;92.02;97253.75;5086454;28;20056;-64
2023/06/07 02:11:17;;;;;;;0.60;0.60;;;;;;;12.89;93.01;97232.09;5085852;28;20040;-64
2023/06/07 02:13:45;;;;;;;0.60;0.60;;;;;;;13.02;92.63;97258.50;5078629;28;20055;-64
2023/06/07 02:16:12;;;;;;;0.60;0.60;;;;;;;12.99;92.64;97259.19;5065366;28;20512;-64
2023/06/07 02:18:40;;;;;;;0.50;0.50;;;;;;;12.65;92.93;97204.81;5066027;28;20137;-64
2023/06/07 02:21:08;;;;;;;0.60;0.60;;;;;;;13.00;92.98;97254.44;5065470;28;20139;-64
2023/06/07 02:23:35;;;;;;;0.60;0.60;;;;;;;13.05;92.42;97257.72;5064911;28;20051;-64
2023/06/07 02:26:02;;;;;;;0.60;0.60;;;;;;;13.08;92.21;97262.53;5064746;28;20052;-64
2023/06/07 02:28:29;;;;;;;0.50;0.50;;;;;;;13.11;91.40;97261.75;5064973;28;20135;-63
2023/06/07 02:30:57;;;;;;;0.50;0.50;;;;;;;13.09;93.05;97264.09;5079588;28;20052;-64
2023/06/07 02:33:24;;;;;;;0.60;0.60;;;;;;;12.75;92.29;97223.59;5064696;28;20139;-64
2023/06/07 02:35:51;;;;;;;0.60;0.60;;;;;;;13.07;92.45;97263.69;5064266;28;20048;-64
2023/06/07 02:38:18;;;;;;;0.50;0.50;;;;;;;13.12;91.36;97262.56;5064781;28;20484;-64
2023/06/07 02:40:45;;;;;;;0.60;0.60;;;;;;;13.11;91.88;97264.53;5065525;28;20057;-64
2023/06/07 02:43:11;;;;;;;0.60;0.60;;;;;;;13.13;92.48;97264.97;5080568;28;20060;-64
2023/06/07 02:45:38;;;;;;;0.60;0.60;;;;;;;13.04;92.72;97261.66;5080930;28;20066;-64
2023/06/07 02:48:06;;;;;;;0.60;0.60;;;;;;;12.47;93.15;97159.34;5065039;28;20053;-64
2023/06/07 02:50:32;;;;;;;0.60;0.60;;;;;;;12.92;93.62;97261.09;5064979;28;20084;-63
2023/06/07 02:52:59;;;;;;;0.60;0.60;;;;;;;12.86;93.77;97257.88;5080452;28;20056;-65
2023/06/07 02:55:26;;;;;;;0.50;0.50;;;;;;;12.92;94.09;97255.53;5065278;28;20052;-63
2023/06/07 02:57:53;;;;;;;0.50;0.50;;;;;;;12.80;93.79;97239.94;5064813;28;20041;-64
2023/06/07 03:00:20;;;;;;;0.60;0.60;;;;;;;12.80;94.54;97245.50;5080130;28;20045;-64
2023/06/07 03:02:47;;;;;;;0.60;0.60;;;;;;;12.44;95.18;97187.88;5065060;28;20069;-64
2023/06/07 03:05:14;;;;;;;0.60;0.60;;;;;;;12.82;94.93;97251.47;5065019;28;20274;-64
2023/06/07 03:07:42;;;;;;;0.60;0.60;;;;;;;12.91;95.36;97257.53;5079973;28;20512;-63
2023/06/07 03:10:09;;;;;;;0.55;0.55;;;;;;;13.02;93.92;97261.28;5067075;28;20109;-63
2023/06/07 03:12:36;;;;;;;0.60;0.60;;;;;;;13.10;92.87;97260.13;5084451;28;20404;-64
2023/06/07 03:15:04;;;;;;;0.60;0.60;;;;;;;12.76;91.70;97196.56;5083831;28;20499;-65
2023/06/07 03:17:31;;;;;;;0.60;0.60;;;;;;;13.04;90.35;97244.19;5082964;28;20059;-65
2023/06/07 03:19:58;;;;;;;0.50;0.50;;;;;;;13.15;89.75;97257.00;5077577;28;20109;-64
2023/06/07 03:22:25;;;;;;;0.60;0.60;;;;;;;12.82;89.83;97204.19;5104802;28;20476;-64
2023/06/07 03:24:54;;;;;;;0.60;0.60;;;;;;;13.16;90.70;97261.41;5104849;28;20036;-64
2023/06/07 03:27:23;;;;;;;0.60;0.60;;;;;;;13.27;90.00;97259.53;5105195;28;20055;-65
2023/06/07 03:29:50;;;;;;;0.50;0.50;;;;;;;13.00;89.76;97199.66;5105210;28;20043;-65
2023/06/07 03:32:17;;;;;;;0.50;0.50;;;;;;;13.45;90.34;97254.94;5104629;28;20142;-65
2023/06/07 03:34:44;;;;;;;0.60;0.60;;;;;;;13.56;90.33;97255.81;5103460;28;20051;-64
2023/06/07 03:37:10;;;;;;;0.60;0.60;;;;;;;13.67;90.41;97251.13;5104348;28;20105;-62
2023/06/07 03:39:37;;;;;;;0.50;0.50;;;;;;;13.67;89.30;97251.13;5103646;28;20126;-64
2023/06/07 03:42:05;;;;;;;0.60;0.60;;;;;;;13.63;90.25;97250.31;5103228;28;20209;-64
2023/06/07 03:44:31;;;;;;;0.60;0.60;;;;;;;13.83;89.74;97253.66;5103383;28;20052;-64
2023/06/07 03:46:58;;;;;;;0.60;0.60;;;;;;;14.09;88.24;97249.84;5104694;28;20050;-64
2023/06/07 03:49:25;;;;;;;0.60;0.60;;;;;;;14.02;86.94;97233.13;5104822;28;20062;-64
2023/06/07 03:51:51;;;;;;;0.52;0.52;;;;;;;14.18;87.39;97250.34;5104156;28;20059;-64
2023/06/07 03:54:18;;;;;;;0.60;0.60;;;;;;;14.35;87.17;97252.47;5104865;28;20108;-64
2023/06/07 03:56:45;;;;;;;0.60;0.60;;;;;;;14.46;86.51;97247.72;5104196;28;20052;-64
2023/06/07 03:59:13;;;;;;;0.60;0.60;;;;;;;14.70;85.88;97252.63;5104544;28;20573;-64
2023/06/07 04:01:39;;;;;;;0.60;0.60;;;;;;;14.85;84.60;97248.69;5104260;28;20043;-64
2023/06/07 04:04:10;;;;;;;0.60;0.60;;;;;;;14.47;84.71;97194.38;5103128;28;20047;-64
2023/06/07 04:06:37;;;;;;;0.60;0.60;;;;;;;15.03;84.27;97238.41;5104365;28;20047;-64
2023/06/07 04:09:03;;;;;;;0.60;0.60;;;;;;;15.10;83.45;97233.63;5104310;28;20047;-64
2023/06/07 04:11:31;;;;;;;0.60;0.60;;;;;;;15.38;82.74;97232.09;5090708;28;20052;-64
2023/06/07 04:13:58;;;;;;;0.60;0.60;;;;;;;15.59;81.67;97230.13;5083808;28;20055;-64
2023/06/07 04:16:24;;;;;;;0.60;0.60;;;;;;;15.75;81.11;97227.75;5084012;28;20048;-64
2023/06/07 04:18:51;;;;;;;0.70;0.70;;;;;;;15.73;80.98;97238.50;5083630;28;20051;-64
2023/06/07 04:21:18;;;;;;;0.70;0.70;;;;;;;15.85;80.73;97228.94;5082353;28;20048;-63
2023/06/07 04:23:45;;;;;;;0.70;0.70;;;;;;;15.84;80.95;97228.13;5082126;28;20051;-63
2023/06/07 04:26:11;;;;;;;0.70;0.70;;;;;;;16.15;79.88;97216.13;5082564;28;20056;-65
2023/06/07 04:28:40;;;;;;;0.70;0.70;;;;;;;16.09;79.09;97183.41;5083280;28;20055;-64
2023/06/07 04:31:08;;;;;;;0.70;0.70;;;;;;;16.47;79.50;97207.69;5083374;28;20063;-64
2023/06/07 04:33:35;;;;;;;0.70;0.70;;;;;;;16.63;78.55;97224.00;5083869;28;20063;-63
2023/06/07 04:36:02;;;;;;;0.60;0.60;;;;;;;16.53;77.84;97176.09;5085872;28;20083;-64
2023/06/07 04:38:29;;;;;;;0.70;0.70;;;;;;;16.91;77.57;97224.69;5087533;28;20470;-64
2023/06/07 04:40:56;;;;;;;0.70;0.70;;;;;;;17.12;76.77;97232.97;5087529;28;20511;-65
2023/06/07 04:43:23;;;;;;;0.70;0.70;;;;;;;17.19;76.07;97226.53;5087602;28;20044;-64
2023/06/07 04:45:54;;;;;;;0.70;0.70;;;;;;;17.26;76.71;97218.09;5085819;28;20519;-65
2023/06/07 04:48:28;;;;;;;0.70;0.70;;;;;;;16.66;76.40;97116.91;5079939;28;20055;-64
2023/06/07 04:51:03;;;;;;;0.75;0.75;;;;;;;17.50;75.17;97225.53;5066317;28;20360;-63
2023/06/07 04:53:36;;;;;;;0.70;0.70;;;;;;;17.33;76.37;97232.03;5065356;28;20417;-63
2023/06/07 04:56:03;;;;;;;0.80;0.80;;;;;;;17.53;74.95;97227.53;5066155;28;20107;-63
2023/06/07 04:58:33;;;;;;;0.80;0.80;;;;;;;17.83;74.32;97224.91;5066232;28;20044;-62
2023/06/07 05:01:00;;;;;;;0.70;0.70;;;;;;;17.72;74.87;97224.19;5067203;28;20055;-64
2023/06/07 05:03:26;;;;;;;0.80;0.80;;;;;;;18.01;74.09;97222.72;5066768;28;20503;-63
2023/06/07 05:05:53;;;;;;;0.80;0.80;;;;;;;18.07;74.18;97230.28;5065403;28;20054;-63
2023/06/07 05:08:21;;;;;;;0.70;0.70;;;;;;;17.97;74.27;97199.56;5067265;28;20863;-62
2023/06/07 05:10:48;;;;;;;0.80;0.80;;;;;;;18.42;73.26;97234.78;5075465;28;20086;-63
2023/06/07 05:13:15;;;;;;;0.80;0.80;;;;;;;18.56;72.25;97228.22;5107245;27;20079;-64
2023/06/07 05:15:44;;;;;;;0.80;0.80;;;;;;;18.64;71.89;97230.50;5107332;27;20135;-63
2023/06/07 05:18:12;;;;;;;0.70;0.70;;;;;;;18.89;71.00;97236.63;5106977;28;20047;-64
2023/06/07 05:20:39;;;;;;;0.90;0.90;;;;;;;18.93;71.36;97243.00;5107278;28;20044;-63
2023/06/07 05:23:06;;;;;;;0.80;0.80;;;;;;;18.48;72.10;97168.56;5107063;28;20044;-62
2023/06/07 05:25:33;;;;;;;0.90;0.90;;;;;;;18.57;72.82;97185.72;5106849;28;20052;-62
2023/06/07 05:27:59;;;;;;;0.80;0.80;;;;;;;19.02;72.79;97232.03;5107051;27;20044;-63
2023/06/07 05:30:39;;;;;;;0.80;0.80;;;;;;;18.84;72.95;97200.59;5106785;28;20101;-63
2023/06/07 05:33:06;;;;;;;0.80;0.80;;;;;;;19.22;70.65;97232.97;5083775;28;20055;-63
2023/06/07 05:35:33;;;;;;;0.80;0.80;;;;;;;19.37;71.69;97233.59;5072857;28;20404;-67
2023/06/07 05:38:01;;;;;;;0.73;0.73;;;;;;;19.53;70.56;97237.38;5066314;28;20067;-60
2023/06/07 05:40:27;;;;;;;0.80;0.80;;;;;;;19.47;70.80;97216.56;5084113;28;20047;-61
2023/06/07 05:42:56;;;;;;;1.00;1.00;;;;;;;19.64;70.20;97236.41;5086313;28;20060;-66
2023/06/07 05:45:23;;;;;;;0.90;0.90;;;;;;;19.91;68.92;97245.63;5065545;28;20509;-60
2023/06/07 05:47:50;;;;;;;0.80;0.80;;;;;;;19.48;69.26;97212.56;5074498;28;20059;-60
2023/06/07 05:50:20;;;;;;;0.80;0.80;;;;;;;19.65;69.02;97243.63;5075997;28;20098;-58
2023/06/07 05:52:57;;;;;;;0.90;0.90;;;;;;;19.29;71.22;97246.97;5067057;28;20057;-60
2023/06/07 05:55:25;;;;;;;0.90;0.90;;;;;;;18.75;71.25;97140.56;5074904;28;20604;-63
2023/06/07 05:57:52;;;;;;;0.90;0.90;;;;;;;19.43;70.13;97243.16;5065553;28;20047;-63
2023/06/07 06:00:20;;;;;;;0.80;0.80;;;;;;;19.65;69.38;97243.63;5065909;28;20787;-60
2023/06/07 06:02:46;;;;;;;0.80;0.80;;;;;;;19.73;68.54;97256.38;5066056;28;20131;-63
2023/06/07 06:05:15;;;;;;;0.90;0.90;;;;;;;19.48;69.78;97243.47;5068473;28;20040;-62
2023/06/07 06:07:43;;;;;;;0.80;0.80;;;;;;;19.53;70.05;97248.63;5073295;28;20091;-64
2023/06/07 06:10:11;;;;;;;0.90;0.90;;;;;;;19.91;68.77;97246.44;5075147;28;20055;-61
2023/06/07 06:12:38;;;;;;;0.90;0.90;;;;;;;19.57;66.55;97126.94;5071826;28;20078;-63
2023/06/07 06:15:05;;;;;;;0.80;0.80;;;;;;;20.12;66.95;97200.25;5076489;28;20491;-62
2023/06/07 06:17:32;;;;;;;0.90;0.90;;;;;;;17.64;65.91;96903.28;5074921;28;20076;-61
2023/06/07 06:19:59;;;;;;;0.80;0.80;;;;;;;19.46;66.09;97251.53;5073105;28;20708;-60
2023/06/07 06:22:25;;;;;;;0.80;0.80;;;;;;;19.13;65.20;97156.06;5067031;28;20157;-61
2023/06/07 06:24:53;;;;;;;0.90;0.90;;;;;;;20.15;64.55;97242.44;5066542;28;20055;-63
2023/06/07 06:27:20;;;;;;;0.80;0.80;;;;;;;20.60;60.42;97243.59;5065409;28;20048;-62
2023/06/07 06:29:47;;;;;;;0.90;0.90;;;;;;;19.99;59.41;97190.84;5077652;28;20127;-61
2023/06/07 06:32:14;;;;;;;0.80;0.80;;;;;;;20.20;57.03;97241.16;5075823;28;20059;-61
2023/06/07 06:34:40;;;;;;;0.80;0.80;;;;;;;20.04;57.78;97221.31;5066240;28;20582;-61
2023/06/07 06:37:07;;;;;;;0.80;0.80;;;;;;;19.44;59.83;97194.94;5077076;28;20507;-65
2023/06/07 06:39:34;;;;;;;0.80;0.80;;;;;;;20.06;61.66;97247.00;5068406;28;20048;-64
2023/06/07 06:42:01;;;;;;;0.80;0.80;;;;;;;19.93;60.93;97175.69;5081983;28;20082;-71
2023/06/07 06:44:28;;;;;;;0.90;0.90;;;;;;;20.10;62.13;97174.56;5084242;28;20052;-66
2023/06/07 06:46:55;;;;;;;0.80;0.80;;;;;;;20.17;59.10;97237.16;5070965;28;20044;-68
2023/06/07 06:49:22;;;;;;;0.88;0.88;;;;;;;19.89;58.95;97136.38;5067081;28;20044;-70
2023/06/07 06:51:51;;;;;;;0.90;0.90;;;;;;;20.35;60.46;97203.06;5067134;28;20544;-63
2023/06/07 06:54:18;;;;;;;0.77;0.77;;;;;;;19.94;60.86;97239.13;5065123;28;20048;-61
2023/06/07 06:56:44;;;;;;;0.93;0.93;;;;;;;19.90;58.45;97159.69;5067904;28;20052;-64
2023/06/07 06:59:11;;;;;;;0.90;0.90;;;;;;;19.78;58.14;97144.22;5064352;28;20044;-61
2023/06/07 07:01:46;;;;;;;0.90;0.90;;;;;;;19.66;57.55;97194.63;5064517;28;20517;-68
2023/06/07 07:04:15;;;;;;;0.77;0.77;;;;;;;19.91;58.23;97228.75;5066010;28;20064;-62
2023/06/07 07:06:43;;;;;;;0.90;0.90;;;;;;;20.42;58.48;97231.09;5064823;28;20067;-63
2023/06/07 07:09:10;;;;;;;0.90;0.90;;;;;;;19.60;61.16;97207.56;5070557;28;20044;-62
2023/06/07 07:11:37;;;;;;;0.80;0.80;;;;;;;19.26;60.61;97098.09;5062930;28;20056;-62
2023/06/07 07:14:04;;;;;;;0.80;0.80;;;;;;;20.27;60.55;97222.13;5066451;28;20048;-62
2023/06/07 07:16:31;;;;;;;0.88;0.88;;;;;;;20.59;59.10;97184.91;5063328;28;20589;-61
2023/06/07 07:18:59;;;;;;;0.80;0.80;;;;;;;20.10;59.36;97157.69;5080302;28;20051;-62
2023/06/07 07:21:26;;;;;;;0.90;0.90;;;;;;;19.97;60.08;97170.78;5068176;28;20114;-63
2023/06/07 07:23:55;;;;;;;1.00;1.00;;;;;;;20.46;61.07;97229.81;5066422;28;20054;-63
2023/06/07 07:26:21;;;;;;;0.93;0.93;;;;;;;21.02;58.56;97230.72;5070049;28;20090;-69
2023/06/07 07:28:48;;;;;;;0.90;0.90;;;;;;;19.67;56.64;96962.91;5062506;28;20052;-64
2023/06/07 07:31:15;;;;;;;0.80;0.80;;;;;;;20.74;57.38;97220.00;5069562;28;20048;-64
2023/06/07 07:33:42;;;;;;;0.90;0.90;;;;;;;20.43;59.38;97232.66;5072773;28;20048;-64
2023/06/07 07:36:09;;;;;;;0.80;0.80;;;;;;;17.98;57.58;96819.94;5070349;28;20711;-66
2023/06/07 07:38:37;;;;;;;0.80;0.80;;;;;;;20.80;58.82;97221.88;5058831;28;20534;-68
2023/06/07 07:41:07;;;;;;;0.90;0.90;;;;;;;21.27;58.32;97216.91;5076681;28;20064;-61
2023/06/07 07:43:34;;;;;;;0.90;0.90;;;;;;;21.37;56.75;97218.66;5066906;28;20049;-61
2023/06/07 07:46:03;;;;;;;0.90;0.90;;;;;;;20.55;58.73;97144.81;5076087;28;20499;-68
2023/06/07 07:48:30;;;;;;;0.90;0.90;;;;;;;21.12;56.97;97217.66;5067299;28;20476;-63
2023/06/07 07:50:57;;;;;;;0.90;0.90;;;;;;;20.78;57.22;97198.22;5078287;28;20055;-60
2023/06/07 07:53:23;;;;;;;1.00;1.00;;;;;;;21.14;57.88;97210.34;5063509;28;20087;-65
2023/06/07 07:55:50;;;;;;;0.90;0.90;;;;;;;20.55;55.71;96999.22;5070830;28;20055;-63
2023/06/07 07:58:17;;;;;;;0.90;0.90;;;;;;;22.09;54.02;97175.03;5079220;28;20058;-64
2023/06/07 08:00:44;;;;;;;0.80;0.80;;;;;;;20.81;52.39;96966.44;5075933;28;20047;-61
2023/06/07 08:03:11;;;;;;;0.90;0.90;;;;;;;22.03;52.82;97182.47;5083907;28;20044;-59
2023/06/07 08:05:37;;;;;;;1.00;1.00;;;;;;;22.11;52.73;97155.63;5083789;28;20127;-63
2023/06/07 08:08:05;;;;;;;1.00;1.00;;;;;;;23.12;51.95;97216.16;5066061;28;20044;-62
2023/06/07 08:10:31;;;;;;;1.00;1.00;;;;;;;23.37;50.11;97195.63;5081983;28;20070;-61
2023/06/07 08:12:58;;;;;;;1.00;1.00;;;;;;;23.73;49.98;97207.41;5070600;28;20052;-69
2023/06/07 08:15:25;;;;;;;1.00;1.00;;;;;;;22.86;50.40;97210.88;5066585;28;20447;-61
2023/06/07 08:17:52;;;;;;;1.00;1.00;;;;;;;23.04;49.04;97211.94;5074326;28;20110;-58
2023/06/07 08:20:20;;;;;;;1.10;1.10;;;;;;;22.22;51.09;97195.63;5065963;28;20491;-62
2023/06/07 08:22:50;;;;;;;0.90;0.90;;;;;;;21.87;51.52;97229.63;5070664;28;20048;-63
2023/06/07 08:25:17;;;;;;;0.90;0.90;;;;;;;22.34;50.92;97206.22;5072055;28;20139;-64
2023/06/07 08:27:44;;;;;;;1.00;1.00;;;;;;;22.31;50.20;97249.47;5069405;28;20197;-62
2023/06/07 08:30:11;;;;;;;1.02;1.02;;;;;;;21.80;51.70;97168.53;5061085;28;20048;-59
2023/06/07 08:32:38;;;;;;;1.00;1.00;;;;;;;22.63;50.33;97197.81;5064185;28;20161;-60
2023/06/07 08:35:07;;;;;;;0.98;0.98;;;;;;;23.00;50.08;97210.47;5068227;28;20477;-65
2023/06/07 08:37:34;;;;;;;1.00;1.00;;;;;;;23.26;50.09;97212.13;5072977;28;20071;-64
2023/06/07 08:40:01;;;;;;;1.05;1.05;;;;;;;24.01;48.77;97205.75;5077542;28;20052;-60
2023/06/07 08:42:28;;;;;;;1.00;1.00;;;;;;;24.07;47.37;97170.75;5072851;28;20499;-59
2023/06/07 08:44:55;;;;;;;1.02;1.02;;;;;;;24.25;47.77;97198.44;5063272;28;20060;-66
2023/06/07 08:47:24;;;;;;;1.10;1.10;;;;;;;23.25;50.56;97190.75;5068834;28;20131;-60
2023/06/07 08:49:55;;;;;;;1.00;1.00;;;;;;;23.03;49.65;97165.13;5075598;28;20130;-62
2023/06/07 08:52:23;;;;;;;1.05;1.05;;;;;;;22.99;51.59;97203.22;5080835;28;20052;-65
2023/06/07 08:54:52;;;;;;;1.20;1.20;;;;;;;22.63;50.48;97144.16;5074062;28;20040;-61
2023/06/07 08:57:19;;;;;;;1.00;1.00;;;;;;;22.82;50.99;97193.22;5071153;28;20431;-62
2023/06/07 08:59:47;;;;;;;1.00;1.00;;;;;;;23.08;50.50;97139.16;5073206;28;20426;-64
2023/06/07 09:02:15;;;;;;;1.00;1.00;;;;;;;23.30;51.02;97114.66;5062719;28;20082;-63
2023/06/07 09:04:42;;;;;;;1.08;1.08;;;;;;;23.24;50.92;97155.22;5084679;28;20052;-60
2023/06/07 09:07:10;;;;;;;1.00;1.00;;;;;;;23.51;49.54;97093.38;5073649;28;20048;-63
2023/06/07 09:09:40;;;;;;;1.13;1.13;;;;;;;23.69;49.27;97110.56;5082717;28;20054;-64
2023/06/07 09:12:07;;;;;;;1.00;1.00;;;;;;;23.72;48.96;97183.22;5081566;28;20044;-63
2023/06/07 09:14:34;;;;;;;0.90;0.90;;;;;;;23.56;49.90;97157.88;5082303;28;20048;-64
2023/06/07 09:17:01;;;;;;;1.08;1.08;;;;;;;23.27;49.67;97151.50;5082552;28;20548;-64
2023/06/07 09:19:37;;;;;;;1.00;1.00;;;;;;;23.61;49.13;97182.75;5081638;28;20123;-63
2023/06/07 09:22:05;;;;;;;1.13;1.13;;;;;;;23.45;49.92;97186.50;5084146;28;20126;-64
2023/06/07 09:24:33;;;;;;;1.00;1.00;;;;;;;23.57;49.14;97182.06;5086812;28;20060;-62
2023/06/07 09:27:03;;;;;;;1.02;1.02;;;;;;;23.85;49.17;97176.28;5086181;28;20525;-63
2023/06/07 09:29:38;;;;;;;1.02;1.02;;;;;;;24.07;48.28;97176.41;5075277;28;20052;-63
2023/06/07 09:32:34;;;;;;;1.00;1.00;;;;;;;23.71;49.81;97173.16;5086476;28;20491;-63
2023/06/07 09:35:15;;;;;;;1.20;1.20;;;;;;;23.84;49.57;97168.25;5086596;28;20061;-64
2023/06/07 09:37:47;;;;;;;1.10;1.10;;;;;;;23.40;50.14;97172.09;5086405;28;20055;-64
2023/06/07 09:40:15;;;;;;;1.00;1.00;;;;;;;24.04;49.09;97177.31;5084657;28;20067;-65
2023/06/07 09:42:43;;;;;;;1.20;1.20;;;;;;;24.29;48.74;97167.97;5083229;28;20048;-65
2023/06/07 09:45:14;;;;;;;1.13;1.13;;;;;;;24.44;48.81;97161.34;5068252;28;20087;-61
2023/06/07 09:47:45;;;;;;;1.20;1.20;;;;;;;25.07;47.03;97158.22;5067510;28;20444;-61
2023/06/07 09:50:13;;;;;;;1.08;1.08;;;;;;;24.43;48.13;97165.41;5068906;28;20056;-61
2023/06/07 09:52:40;;;;;;;1.20;1.20;;;;;;;24.13;49.04;97140.59;5072479;28;20353;-65
2023/06/07 09:55:08;;;;;;;1.05;1.05;;;;;;;24.84;47.70;97162.31;5071814;28;20051;-61
2023/06/07 09:57:39;;;;;;;1.10;1.10;;;;;;;25.51;46.58;97175.97;5080584;28;20052;-64
2023/06/07 10:00:14;;;;;;;1.30;1.30;;;;;;;25.66;46.76;97159.94;5080347;28;20161;-65
2023/06/07 10:02:42;;;;;;;1.20;1.20;;;;;;;25.82;46.43;97156.84;5076319;28;20074;-61
2023/06/07 10:05:12;;;;;;;1.40;1.40;;;;;;;25.88;45.28;97154.97;5077328;28;20059;-64
2023/06/07 10:07:45;;;;;;;1.30;1.30;;;;;;;25.65;45.98;97153.50;5076441;28;20327;-61
2023/06/07 10:10:17;;;;;;;1.42;1.42;;;;;;;25.34;47.63;97149.09;5067228;28;20576;-61
2023/06/07 10:12:46;;;;;;;1.27;1.27;;;;;;;24.88;48.76;97145.97;5068970;28;20598;-61
2023/06/07 10:15:18;;;;;;;1.30;1.30;;;;;;;24.77;47.33;97043.56;5072326;28;20052;-62
2023/06/07 10:17:49;;;;;;;1.38;1.38;;;;;;;25.78;45.97;97144.88;5075625;28;20044;-66
2023/06/07 10:20:26;;;;;;;1.48;1.48;;;;;;;25.80;45.68;97080.69;5065827;28;20052;-62
2023/06/07 10:23:16;;;;;;;1.33;1.33;;;;;;;26.56;45.36;97143.13;5066808;28;20056;-63
2023/06/07 10:25:52;;;;;;;1.20;1.20;;;;;;;25.31;47.02;97139.44;5091642;28;20507;-62
2023/06/07 10:28:32;;;;;;;1.30;1.30;;;;;;;25.13;47.63;97023.88;5062457;28;20139;-69
2023/06/07 10:31:05;;;;;;;1.40;1.40;;;;;;;26.38;45.38;97097.66;5070384;28;20044;-65
2023/06/07 10:33:33;;;;;;;1.20;1.20;;;;;;;26.26;44.57;97073.03;5076663;28;20075;-63
2023/06/07 10:36:00;;;;;;;1.30;1.30;;;;;;;27.02;44.52;97138.19;5072535;28;20041;-64
2023/06/07 10:38:30;;;;;;;1.30;1.30;;;;;;;25.18;47.67;97073.53;5074383;28;20055;-66
2023/06/07 10:41:00;;;;;;;1.40;1.40;;;;;;;25.17;46.54;97027.38;5072290;28;20040;-64
2023/06/07 10:43:28;;;;;;;1.20;1.20;;;;;;;26.15;46.54;97123.81;5064939;28;20113;-62
2023/06/07 10:46:22;;;;;;;1.35;1.35;;;;;;;25.43;48.13;97129.28;5064639;28;20045;-63
2023/06/07 10:48:50;;;;;;;1.38;1.38;;;;;;;25.37;47.65;97125.47;5075375;28;20060;-61
2023/06/07 10:51:38;;;;;;;1.10;1.10;;;;;;;24.75;50.52;97119.75;5076352;28;20437;-63
2023/06/07 10:54:04;;;;;;;1.30;1.30;;;;;;;25.51;47.87;97119.22;5080695;28;20139;-63
2023/06/07 10:56:33;;;;;;;1.30;1.30;;;;;;;24.55;48.77;97070.31;5075569;28;20422;-70
2023/06/07 10:59:15;;;;;;;1.20;1.20;;;;;;;25.74;48.42;97127.19;5072607;28;20058;-68
2023/06/07 11:01:46;;;;;;;1.40;1.40;;;;;;;25.73;48.89;97114.25;5076218;28;20047;-68
2023/06/07 11:04:36;;;;;;;1.10;1.10;;;;;;;25.22;49.39;97114.66;5064751;28;20113;-61
2023/06/07 11:07:19;;;;;;;1.30;1.30;;;;;;;25.84;48.77;97114.59;5081397;28;20072;-61
2023/06/07 11:09:51;;;;;;;1.35;1.35;;;;;;;25.36;48.74;97078.50;5065533;28;20057;-60
2023/06/07 11:12:40;;;;;;;1.33;1.33;;;;;;;26.28;47.95;97107.44;5079755;28;20055;-61
2023/06/07 11:15:16;;;;;;;1.25;1.25;;;;;;;26.48;46.97;97113.44;5070896;28;20055;-61
2023/06/07 11:17:53;;;;;;;1.40;1.40;;;;;;;26.49;47.52;97115.03;5067039;28;20059;-61
2023/06/07 11:20:35;;;;;;;1.40;1.40;;;;;;;26.42;48.23;97115.34;5067136;28;20084;-63
2023/06/07 11:23:33;;;;;;;1.58;1.58;;;;;;;27.05;47.59;97109.59;5081691;28;20105;-59
2023/06/07 11:26:10;;;;;;;1.40;1.40;;;;;;;26.38;47.66;97114.72;5070505;28;20052;-59
2023/06/07 11:28:39;;;;;;;1.27;1.27;;;;;;;26.09;48.61;97103.00;5086246;28;20473;-60
2023/06/07 11:31:11;;;;;;;1.30;1.30;;;;;;;25.66;49.46;97103.19;5078604;28;20048;-61
2023/06/07 11:33:40;;;;;;;1.48;1.48;;;;;;;25.63;50.32;97098.44;5071355;28;20056;-62
2023/06/07 11:36:09;;;;;;;1.20;1.20;;;;;;;25.28;51.14;97095.00;5076738;28;20423;-59
2023/06/07 11:38:37;;;;;;;1.10;1.10;;;;;;;25.64;50.71;97094.38;5080831;28;20183;-61
2023/06/07 11:41:05;;;;;;;1.20;1.20;;;;;;;26.10;49.98;97081.84;5070486;28;20122;-59
2023/06/07 11:43:33;;;;;;;1.38;1.38;;;;;;;26.03;48.48;97104.88;5066166;28;20049;-62